createdAt,value
2018-08-09T00:00:02.961Z,24.69
2018-08-09T00:02:31.033Z,24.65
2018-08-09T00:04:59.096Z,24.58
2018-08-09T00:07:27.182Z,24.50
2018-08-09T00:09:55.239Z,24.45
2018-08-09T00:12:23.316Z,24.42
2018-08-09T00:14:51.372Z,24.25
2018-08-09T00:17:19.440Z,24.25
2018-08-09T00:19:47.481Z,24.33
2018-08-09T00:22:15.556Z,24.42
2018-08-09T00:24:43.640Z,24.46
2018-08-09T00:27:11.711Z,24.45
2018-08-09T00:29:39.748Z,24.45
2018-08-09T00:32:07.796Z,24.43
2018-08-09T00:34:35.847Z,24.44
2018-08-09T00:37:03.900Z,24.46
2018-08-09T00:39:31.956Z,24.47
2018-08-09T00:42:00.021Z,24.44
2018-08-09T00:44:28.079Z,24.32
2018-08-09T00:46:56.144Z,24.24
2018-08-09T00:49:24.201Z,24.22
2018-08-09T00:51:52.296Z,24.18
2018-08-09T00:54:20.347Z,24.14
2018-08-09T00:56:48.400Z,24.12
2018-08-09T00:59:16.444Z,24.07
2018-08-09T01:01:44.501Z,24.00
2018-08-09T01:04:12.544Z,23.94
2018-08-09T01:06:40.623Z,23.90
2018-08-09T01:09:09.510Z,23.83
2018-08-09T01:11:38.516Z,23.81
2018-08-09T01:14:06.609Z,23.80
2018-08-09T01:16:34.673Z,23.78
2018-08-09T01:19:02.704Z,23.78
2018-08-09T01:21:30.750Z,23.80
2018-08-09T01:23:58.813Z,23.78
2018-08-09T01:26:26.860Z,23.80
2018-08-09T01:28:54.932Z,23.86
2018-08-09T01:31:33.417Z,23.90
2018-08-09T01:34:02.431Z,23.91
2018-08-09T01:36:30.591Z,23.86
2018-08-09T01:38:58.784Z,23.84
2018-08-09T01:41:27.052Z,23.88
2018-08-09T01:43:58.284Z,23.93
2018-08-09T01:46:26.750Z,23.95
2018-08-09T01:48:55.424Z,23.99
2018-08-09T01:51:23.714Z,24.01
2018-08-09T01:53:52.389Z,23.98
2018-08-09T01:56:20.443Z,23.96
2018-08-09T01:58:49.148Z,23.95
2018-08-09T02:01:17.425Z,23.92
2018-08-09T02:03:45.800Z,23.88
2018-08-09T02:06:14.900Z,23.83
2018-08-09T02:08:43.004Z,23.77
2018-08-09T02:11:17.852Z,23.69
2018-08-09T02:13:45.884Z,23.62
2018-08-09T02:16:13.956Z,23.55
2018-08-09T02:18:42.028Z,23.52
2018-08-09T02:21:10.784Z,23.47
2018-08-09T02:23:38.841Z,23.47
2018-08-09T02:26:06.897Z,23.43
2018-08-09T02:28:34.958Z,23.36
2018-08-09T02:31:03.012Z,23.33
2018-08-09T02:33:31.073Z,23.33
2018-08-09T02:35:59.124Z,23.29
2018-08-09T02:38:27.196Z,23.26
2018-08-09T02:40:55.258Z,23.23
2018-08-09T02:43:23.324Z,23.19
2018-08-09T02:45:51.363Z,23.18
2018-08-09T02:48:19.458Z,23.20
2018-08-09T02:50:47.509Z,23.27
2018-08-09T02:53:15.611Z,23.34
2018-08-09T02:55:43.667Z,23.42
2018-08-09T02:58:11.716Z,23.45
2018-08-09T03:00:39.791Z,23.48
2018-08-09T03:03:07.857Z,23.45
2018-08-09T03:05:35.913Z,23.44
2018-08-09T03:08:03.977Z,23.43
2018-08-09T03:10:32.016Z,23.41
2018-08-09T03:13:00.080Z,23.41
2018-08-09T03:15:28.139Z,23.44
2018-08-09T03:17:56.187Z,23.41
2018-08-09T03:20:24.226Z,23.30
2018-08-09T03:22:52.270Z,23.21
2018-08-09T03:25:20.317Z,23.11
2018-08-09T03:27:48.391Z,23.10
2018-08-09T03:30:16.443Z,23.13
2018-08-09T03:32:44.500Z,23.11
2018-08-09T03:35:12.524Z,23.10
2018-08-09T03:37:40.580Z,23.02
2018-08-09T03:40:08.620Z,22.79
2018-08-09T03:42:36.688Z,22.64
2018-08-09T03:45:05.092Z,22.56
2018-08-09T03:47:33.143Z,22.52
2018-08-09T03:50:01.192Z,22.55
2018-08-09T03:52:29.243Z,22.55
2018-08-09T03:54:57.308Z,22.61
2018-08-09T03:57:25.347Z,22.69
2018-08-09T03:59:53.409Z,22.63
2018-08-09T04:02:21.453Z,22.41
2018-08-09T04:04:49.509Z,22.26
2018-08-09T04:07:17.563Z,22.21
2018-08-09T04:09:45.639Z,22.22
2018-08-09T04:12:13.692Z,22.20
2018-08-09T04:14:41.784Z,22.22
2018-08-09T04:17:17.239Z,22.24
2018-08-09T04:19:45.411Z,22.43
2018-08-09T04:22:13.452Z,22.63
2018-08-09T04:24:41.529Z,22.70
2018-08-09T04:27:09.577Z,22.63
2018-08-09T04:29:37.621Z,22.65
2018-08-09T04:32:05.660Z,22.72
2018-08-09T04:34:33.728Z,22.78
2018-08-09T04:37:01.793Z,22.84
2018-08-09T04:39:29.868Z,22.85
2018-08-09T04:41:57.924Z,22.91
2018-08-09T04:44:25.980Z,22.85
2018-08-09T04:46:54.025Z,22.70
2018-08-09T04:49:22.140Z,22.61
2018-08-09T04:51:50.128Z,22.67
2018-08-09T04:54:18.213Z,22.68
2018-08-09T04:56:46.284Z,22.58
2018-08-09T04:59:14.349Z,22.59
2018-08-09T05:01:42.380Z,22.64
2018-08-09T05:04:10.520Z,22.75
2018-08-09T05:06:38.583Z,22.59
2018-08-09T05:09:08.472Z,22.27
2018-08-09T05:11:36.568Z,22.06
2018-08-09T05:14:04.644Z,21.82
2018-08-09T05:16:32.728Z,21.63
2018-08-09T05:19:00.852Z,21.44
2018-08-09T05:21:28.953Z,21.34
2018-08-09T05:23:57.024Z,21.27
2018-08-09T05:26:25.126Z,21.21
2018-08-09T05:28:53.180Z,21.20
2018-08-09T05:31:21.321Z,21.18
2018-08-09T05:33:49.386Z,21.19
2018-08-09T05:36:17.450Z,21.23
2018-08-09T05:38:45.579Z,21.27
2018-08-09T05:41:13.681Z,21.31
2018-08-09T05:43:41.784Z,21.37
2018-08-09T05:46:09.836Z,21.40
2018-08-09T05:48:37.889Z,21.47
2018-08-09T05:51:06.068Z,21.55
2018-08-09T05:53:34.131Z,21.60
2018-08-09T05:56:02.213Z,21.65
2018-08-09T05:58:30.303Z,21.72
2018-08-09T06:00:58.364Z,21.82
2018-08-09T06:03:26.428Z,21.92
2018-08-09T06:05:54.513Z,21.98
2018-08-09T06:08:22.584Z,22.04
2018-08-09T06:10:50.648Z,22.10
2018-08-09T06:13:18.747Z,22.16
2018-08-09T06:15:46.820Z,22.25
2018-08-09T06:18:14.916Z,22.33
2018-08-09T06:20:43.004Z,22.44
2018-08-09T06:23:11.102Z,22.53
2018-08-09T06:25:39.350Z,22.63
2018-08-09T06:28:07.407Z,22.72
2018-08-09T06:30:35.476Z,22.81
2018-08-09T06:33:03.557Z,22.87
2018-08-09T06:35:31.628Z,22.92
2018-08-09T06:37:59.670Z,22.97
2018-08-09T06:40:27.744Z,23.08
2018-08-09T06:42:55.793Z,23.20
2018-08-09T06:45:23.836Z,23.31
2018-08-09T06:47:51.888Z,23.38
2018-08-09T06:50:19.941Z,23.50
2018-08-09T06:52:47.993Z,23.60
2018-08-09T06:55:16.049Z,23.74
2018-08-09T06:57:44.088Z,23.83
2018-08-09T07:00:13.249Z,23.80
2018-08-09T07:02:41.476Z,23.89
2018-08-09T07:05:09.533Z,23.98
2018-08-09T07:07:37.959Z,24.08
2018-08-09T07:10:06.657Z,24.10
2018-08-09T07:12:34.720Z,24.12
2018-08-09T07:15:02.772Z,24.18
2018-08-09T07:17:30.823Z,24.25
2018-08-09T07:19:58.900Z,24.45
2018-08-09T07:22:26.948Z,24.63
2018-08-09T07:24:55.008Z,24.66
2018-08-09T07:27:23.077Z,24.63
2018-08-09T07:29:51.152Z,24.61
2018-08-09T07:32:19.205Z,24.64
2018-08-09T07:34:47.260Z,24.67
2018-08-09T07:37:15.340Z,24.78
2018-08-09T07:39:43.475Z,25.02
2018-08-09T07:42:11.491Z,25.21
2018-08-09T07:44:39.544Z,25.50
2018-08-09T07:47:07.665Z,25.74
2018-08-09T07:49:35.712Z,25.97
2018-08-09T07:52:03.820Z,26.12
2018-08-09T07:54:31.891Z,26.24
2018-08-09T07:56:59.961Z,26.42
2018-08-09T07:59:27.995Z,26.52
2018-08-09T08:01:56.065Z,26.67
2018-08-09T08:04:24.139Z,26.81
2018-08-09T08:06:52.189Z,26.95
2018-08-09T08:09:20.222Z,27.00
2018-08-09T08:11:48.312Z,27.07
2018-08-09T08:14:16.352Z,27.22
2018-08-09T08:16:44.457Z,27.26
2018-08-09T08:19:12.524Z,27.36
2018-08-09T08:21:40.607Z,27.46
2018-08-09T08:24:08.652Z,27.73
2018-08-09T08:26:36.798Z,28.01
2018-08-09T08:29:04.836Z,28.18
2018-08-09T08:31:32.945Z,28.29
2018-08-09T08:34:01.041Z,28.35
2018-08-09T08:36:29.089Z,28.48
2018-08-09T08:38:57.119Z,28.60
2018-08-09T08:41:25.188Z,28.77
2018-08-09T08:43:53.203Z,29.09
2018-08-09T08:46:21.284Z,29.44
2018-08-09T08:48:49.316Z,29.71
2018-08-09T08:51:17.361Z,29.93
2018-08-09T08:53:45.385Z,30.15
2018-08-09T08:56:13.463Z,30.43
2018-08-09T08:58:41.538Z,30.44
2018-08-09T09:01:09.661Z,30.41
2018-08-09T09:03:37.756Z,30.64
2018-08-09T09:06:05.844Z,30.79
2018-08-09T09:08:33.917Z,30.96
2018-08-09T09:11:01.992Z,31.03
2018-08-09T09:13:30.054Z,30.93
2018-08-09T09:15:58.097Z,30.78
2018-08-09T09:18:26.193Z,30.82
2018-08-09T09:20:54.238Z,30.90
2018-08-09T09:23:22.293Z,31.12
2018-08-09T09:25:50.337Z,31.20
2018-08-09T09:28:18.436Z,31.12
2018-08-09T09:30:46.508Z,31.04
2018-08-09T09:33:14.548Z,31.12
2018-08-09T09:35:42.601Z,31.20
2018-08-09T09:38:10.666Z,31.31
2018-08-09T09:40:38.724Z,31.40
2018-08-09T09:43:06.819Z,31.69
2018-08-09T09:45:34.862Z,32.07
2018-08-09T09:48:02.916Z,32.44
2018-08-09T09:50:30.956Z,32.42
2018-08-09T09:52:59.005Z,32.46
2018-08-09T09:55:27.051Z,32.44
2018-08-09T09:57:55.119Z,32.72
2018-08-09T10:00:28.105Z,32.73
2018-08-09T10:02:56.192Z,32.79
2018-08-09T10:05:24.240Z,32.99
2018-08-09T10:07:52.413Z,33.25
2018-08-09T10:10:20.519Z,33.41
2018-08-09T10:12:48.575Z,33.46
2018-08-09T10:15:16.616Z,33.43
2018-08-09T10:17:44.697Z,33.56
2018-08-09T10:20:12.756Z,33.35
2018-08-09T10:22:40.830Z,32.95
2018-08-09T10:25:08.905Z,32.65
2018-08-09T10:27:37.165Z,32.50
2018-08-09T10:30:06.153Z,32.75
2018-08-09T10:32:34.236Z,32.94
2018-08-09T10:35:02.293Z,32.93
2018-08-09T10:37:30.372Z,32.93
2018-08-09T10:39:58.450Z,33.04
2018-08-09T10:42:26.511Z,33.37
2018-08-09T10:44:54.582Z,33.27
2018-08-09T10:47:22.665Z,33.08
2018-08-09T10:49:50.708Z,32.76
2018-08-09T10:52:18.767Z,32.50
2018-08-09T10:54:46.872Z,32.22
2018-08-09T10:57:14.948Z,31.99
2018-08-09T10:59:43.033Z,31.76
2018-08-09T11:02:11.088Z,31.70
2018-08-09T11:04:39.154Z,31.61
2018-08-09T11:07:07.325Z,31.61
2018-08-09T11:09:35.396Z,31.58
2018-08-09T11:12:03.512Z,31.51
2018-08-09T11:14:31.636Z,31.40
2018-08-09T11:16:59.732Z,31.22
2018-08-09T11:19:27.728Z,31.08
2018-08-09T11:21:55.837Z,30.94
2018-08-09T11:24:23.882Z,30.76
2018-08-09T11:26:51.924Z,30.59
2018-08-09T11:29:19.980Z,30.38
2018-08-09T11:31:48.028Z,30.22
2018-08-09T11:34:16.081Z,30.00
2018-08-09T11:36:44.143Z,29.89
2018-08-09T11:39:12.838Z,29.83
2018-08-09T11:41:40.882Z,29.81
2018-08-09T11:44:09.901Z,29.77
2018-08-09T11:46:37.939Z,29.81
2018-08-09T11:49:06.079Z,29.89
2018-08-09T11:51:34.113Z,30.05
2018-08-09T11:54:02.201Z,30.10
2018-08-09T11:56:30.290Z,30.15
2018-08-09T11:58:58.307Z,30.10
2018-08-09T12:01:26.361Z,30.00
2018-08-09T12:03:54.512Z,29.98
2018-08-09T12:06:22.571Z,29.96
2018-08-09T12:08:50.620Z,29.99
2018-08-09T12:11:18.670Z,29.99
2018-08-09T12:13:46.743Z,29.96
2018-08-09T12:16:14.804Z,30.01
2018-08-09T12:18:42.902Z,30.03
2018-08-09T12:21:10.997Z,30.07
2018-08-09T12:23:39.097Z,30.17
2018-08-09T12:26:07.151Z,30.22
2018-08-09T12:28:35.212Z,30.53
2018-08-09T12:31:03.288Z,30.78
2018-08-09T12:33:31.421Z,30.95
2018-08-09T12:35:59.519Z,31.05
2018-08-09T12:38:27.604Z,31.10
2018-08-09T12:40:55.657Z,31.08
2018-08-09T12:43:23.735Z,31.13
2018-08-09T12:45:51.806Z,31.20
2018-08-09T12:48:19.883Z,31.43
2018-08-09T12:50:48.000Z,31.69
2018-08-09T12:53:16.003Z,31.83
2018-08-09T12:55:44.096Z,31.94
2018-08-09T12:58:12.160Z,32.08
2018-08-09T13:00:40.286Z,32.19
2018-08-09T13:03:08.604Z,32.21
2018-08-09T13:05:36.675Z,32.18
2018-08-09T13:08:04.821Z,32.08
2018-08-09T13:10:32.892Z,32.00
2018-08-09T13:13:00.957Z,31.99
2018-08-09T13:15:29.031Z,32.05
2018-08-09T13:17:57.103Z,32.13
2018-08-09T13:20:25.192Z,32.11
2018-08-09T13:22:53.261Z,32.04
2018-08-09T13:25:21.337Z,31.99
2018-08-09T13:27:49.455Z,31.96
2018-08-09T13:30:17.549Z,31.87
2018-08-09T13:32:45.799Z,31.89
2018-08-09T13:35:13.871Z,31.90
2018-08-09T13:37:42.000Z,31.85
2018-08-09T13:40:10.837Z,31.85
2018-08-09T13:42:39.824Z,31.76
2018-08-09T13:45:12.188Z,31.66
2018-08-09T13:47:40.566Z,31.65
2018-08-09T13:50:09.150Z,31.66
2018-08-09T13:52:37.354Z,31.72
2018-08-09T13:55:05.688Z,31.71
2018-08-09T13:57:33.731Z,31.74
2018-08-09T14:00:01.800Z,31.78
2018-08-09T14:02:30.105Z,31.77
2018-08-09T14:04:58.167Z,31.80
2018-08-09T14:07:26.425Z,31.93
2018-08-09T14:09:54.508Z,32.20
2018-08-09T14:12:22.608Z,32.57
2018-08-09T14:14:50.696Z,32.83
2018-08-09T14:17:18.758Z,33.07
2018-08-09T14:19:46.836Z,33.23
2018-08-09T14:22:14.884Z,33.28
2018-08-09T14:24:43.034Z,33.34
2018-08-09T14:27:11.021Z,33.43
2018-08-09T14:29:39.075Z,33.42
2018-08-09T14:32:07.140Z,33.46
2018-08-09T14:34:35.231Z,33.51
2018-08-09T14:37:03.303Z,33.54
2018-08-09T14:39:31.366Z,33.59
2018-08-09T14:41:59.493Z,33.67
2018-08-09T14:44:27.520Z,33.83
2018-08-09T14:46:55.593Z,33.78
2018-08-09T14:49:23.635Z,33.73
2018-08-09T14:51:51.736Z,33.88
2018-08-09T14:54:19.791Z,33.96
2018-08-09T14:56:47.872Z,33.97
2018-08-09T14:59:15.981Z,33.89
2018-08-09T15:01:44.056Z,33.79
2018-08-09T15:04:12.104Z,33.77
2018-08-09T15:06:40.183Z,33.77
2018-08-09T15:09:10.139Z,33.79
2018-08-09T15:11:38.203Z,33.78
2018-08-09T15:14:07.003Z,33.72
2018-08-09T15:16:35.085Z,33.79
2018-08-09T15:19:03.177Z,33.93
2018-08-09T15:21:31.225Z,33.87
2018-08-09T15:23:59.291Z,33.77
2018-08-09T15:26:27.365Z,33.83
2018-08-09T15:28:55.404Z,33.92
2018-08-09T15:31:23.469Z,33.90
2018-08-09T15:33:51.517Z,33.86
2018-08-09T15:36:19.567Z,33.77
2018-08-09T15:38:47.640Z,33.69
2018-08-09T15:41:15.873Z,33.57
2018-08-09T15:43:43.933Z,33.48
2018-08-09T15:46:11.975Z,33.35
2018-08-09T15:48:40.024Z,33.22
2018-08-09T15:51:08.085Z,33.09
2018-08-09T15:53:36.129Z,32.99
2018-08-09T15:56:04.193Z,32.89
2018-08-09T15:58:32.264Z,32.82
2018-08-09T16:01:00.321Z,32.83
2018-08-09T16:03:28.414Z,32.82
2018-08-09T16:05:56.511Z,32.71
2018-08-09T16:08:24.613Z,32.60
2018-08-09T16:10:52.700Z,32.58
2018-08-09T16:13:20.933Z,32.54
2018-08-09T16:15:48.993Z,32.49
2018-08-09T16:18:17.054Z,32.45
2018-08-09T16:20:45.109Z,32.41
2018-08-09T16:23:13.191Z,32.37
2018-08-09T16:25:42.068Z,32.36
2018-08-09T16:28:10.141Z,32.34
2018-08-09T16:30:38.196Z,32.31
2018-08-09T16:33:06.688Z,32.30
2018-08-09T16:35:34.798Z,32.28
2018-08-09T16:38:02.880Z,32.28
2018-08-09T16:40:30.936Z,32.30
2018-08-09T16:42:59.005Z,32.24
2018-08-09T16:45:27.172Z,32.20
2018-08-09T16:47:55.289Z,32.16
2018-08-09T16:50:24.929Z,32.12
2018-08-09T16:52:53.136Z,32.07
2018-08-09T16:55:22.289Z,32.03
2018-08-09T16:57:50.387Z,31.98
2018-08-09T17:00:20.720Z,31.97
2018-08-09T17:02:49.053Z,31.94
2018-08-09T17:05:19.925Z,31.93
2018-08-09T17:07:48.089Z,31.89
2018-08-09T17:10:20.576Z,31.85
2018-08-09T17:12:48.699Z,31.83
2018-08-09T17:15:19.031Z,31.80
2018-08-09T17:17:47.115Z,31.76
2018-08-09T17:20:17.952Z,31.74
2018-08-09T17:22:46.057Z,31.23
2018-08-09T17:25:14.693Z,30.02
2018-08-09T17:27:44.144Z,28.80
2018-08-09T17:30:13.479Z,27.86
2018-08-09T17:32:41.860Z,27.07
2018-08-09T17:35:10.661Z,26.58
2018-08-09T17:37:39.108Z,26.16
2018-08-09T17:40:10.085Z,25.84
2018-08-09T17:42:38.117Z,25.67
2018-08-09T17:45:06.510Z,25.50
2018-08-09T17:47:34.544Z,25.49
2018-08-09T17:50:02.585Z,25.53
2018-08-09T17:52:30.760Z,25.56
2018-08-09T17:54:58.808Z,25.58
2018-08-09T17:57:26.901Z,25.58
2018-08-09T17:59:54.950Z,25.57
2018-08-09T18:02:22.988Z,25.47
2018-08-09T18:04:51.082Z,25.46
2018-08-09T18:07:19.087Z,25.39
2018-08-09T18:09:47.148Z,25.52
2018-08-09T18:12:15.652Z,25.63
2018-08-09T18:14:45.004Z,25.68
2018-08-09T18:17:13.369Z,25.66
2018-08-09T18:19:41.859Z,25.61
2018-08-09T18:22:10.641Z,25.53
2018-08-09T18:24:38.732Z,25.51
2018-08-09T18:27:07.180Z,25.54
2018-08-09T18:29:35.296Z,25.66
2018-08-09T18:32:03.352Z,25.87
2018-08-09T18:34:31.415Z,26.02
2018-08-09T18:36:59.540Z,26.09
2018-08-09T18:39:27.624Z,26.14
2018-08-09T18:41:55.672Z,26.21
2018-08-09T18:44:23.738Z,26.14
2018-08-09T18:46:51.821Z,26.07
2018-08-09T18:49:19.881Z,25.92
2018-08-09T18:51:47.971Z,25.79
2018-08-09T18:54:16.044Z,25.79
2018-08-09T18:56:44.115Z,25.84
2018-08-09T18:59:12.180Z,25.73
2018-08-09T19:01:40.248Z,25.58
2018-08-09T19:04:08.511Z,25.41
2018-08-09T19:06:36.568Z,25.25
2018-08-09T19:09:07.359Z,25.12
2018-08-09T19:11:35.424Z,24.97
2018-08-09T19:14:03.479Z,24.87
2018-08-09T19:16:31.552Z,24.76
2018-08-09T19:18:59.646Z,24.65
2018-08-09T19:21:28.012Z,24.53
2018-08-09T19:23:56.072Z,24.40
2018-08-09T19:26:24.142Z,24.30
2018-08-09T19:28:52.192Z,24.24
2018-08-09T19:31:20.292Z,24.16
2018-08-09T19:33:48.369Z,24.08
2018-08-09T19:36:16.447Z,23.97
2018-08-09T19:38:44.663Z,23.91
2018-08-09T19:41:12.637Z,23.87
2018-08-09T19:43:40.688Z,23.80
2018-08-09T19:46:08.771Z,23.73
2018-08-09T19:48:37.080Z,23.70
2018-08-09T19:51:05.164Z,23.73
2018-08-09T19:53:33.217Z,23.73
2018-08-09T19:56:01.271Z,23.74
2018-08-09T19:58:29.340Z,23.70
2018-08-09T20:00:57.424Z,23.69
2018-08-09T20:03:25.474Z,23.70
2018-08-09T20:05:53.533Z,23.70
2018-08-09T20:08:21.584Z,23.71
2018-08-09T20:10:49.642Z,23.70
2018-08-09T20:13:17.696Z,23.67
2018-08-09T20:15:45.760Z,23.60
2018-08-09T20:18:13.800Z,23.54
2018-08-09T20:20:41.856Z,23.52
2018-08-09T20:23:09.917Z,23.46
2018-08-09T20:25:37.976Z,23.41
2018-08-09T20:28:06.232Z,23.38
2018-08-09T20:30:34.325Z,23.34
2018-08-09T20:33:02.404Z,23.32
2018-08-09T20:35:30.447Z,23.29
2018-08-09T20:37:58.501Z,23.26
2018-08-09T20:40:26.576Z,23.23
2018-08-09T20:42:55.043Z,23.16
2018-08-09T20:45:23.987Z,23.10
2018-08-09T20:47:52.118Z,23.04
2018-08-09T20:50:21.911Z,23.00
2018-08-09T20:52:50.484Z,22.95
2018-08-09T20:55:18.769Z,22.91
2018-08-09T20:57:47.540Z,22.85
2018-08-09T21:00:18.302Z,22.82
2018-08-09T21:02:47.576Z,22.81
2018-08-09T21:05:30.916Z,22.82
2018-08-09T21:07:58.991Z,22.81
2018-08-09T21:10:27.352Z,22.81
2018-08-09T21:12:55.640Z,22.82
2018-08-09T21:15:23.774Z,22.85
2018-08-09T21:17:51.788Z,22.81
2018-08-09T21:20:19.860Z,22.80
2018-08-09T21:22:48.834Z,22.80
2018-08-09T21:25:16.929Z,22.78
2018-08-09T21:27:45.385Z,22.78
2018-08-09T21:30:15.597Z,22.70
2018-08-09T21:32:44.091Z,22.79
2018-08-09T21:35:12.218Z,22.73
2018-08-09T21:37:41.333Z,22.78
2018-08-09T21:40:10.707Z,22.78
2018-08-09T21:42:38.780Z,22.77
2018-08-09T21:45:11.336Z,22.77
2018-08-09T21:47:39.599Z,22.75
2018-08-09T21:50:11.119Z,22.72
2018-08-09T21:52:39.400Z,22.68
2018-08-09T21:55:07.868Z,22.62
2018-08-09T21:57:36.154Z,22.60
2018-08-09T22:00:06.167Z,22.51
2018-08-09T22:02:34.239Z,22.56
2018-08-09T22:06:05.112Z,22.53
2018-08-09T22:08:38.511Z,22.50
2018-08-09T22:11:12.551Z,22.48
2018-08-09T22:13:45.977Z,22.46
2018-08-09T22:16:19.341Z,22.44
2018-08-09T22:18:52.676Z,22.42
2018-08-09T22:22:26.110Z,22.40
2018-08-09T22:24:54.147Z,22.35
2018-08-09T22:27:22.205Z,22.35
2018-08-09T22:29:50.273Z,22.35
2018-08-09T22:32:18.360Z,22.34
2018-08-09T22:34:46.456Z,22.35
2018-08-09T22:37:14.576Z,22.35
2018-08-09T22:39:42.636Z,22.33
2018-08-09T22:42:10.748Z,22.36
2018-08-09T22:44:38.802Z,22.34
2018-08-09T22:47:06.895Z,22.27
2018-08-09T22:49:34.976Z,22.29
2018-08-09T22:52:03.058Z,22.25
2018-08-09T22:54:31.244Z,22.27
2018-08-09T22:56:59.316Z,22.26
2018-08-09T22:59:27.472Z,22.24
2018-08-09T23:01:55.552Z,22.20
2018-08-09T23:04:23.646Z,22.17
2018-08-09T23:06:51.711Z,22.16
2018-08-09T23:09:19.805Z,22.12
2018-08-09T23:11:47.897Z,22.12
2018-08-09T23:14:15.984Z,22.13
2018-08-09T23:16:44.068Z,22.07
2018-08-09T23:19:12.156Z,22.06
2018-08-09T23:21:40.224Z,22.05
2018-08-09T23:24:08.316Z,22.04
2018-08-09T23:26:36.399Z,22.02
2018-08-09T23:29:04.517Z,22.02
2018-08-09T23:31:32.624Z,22.01
2018-08-09T23:34:00.710Z,21.99
2018-08-09T23:36:28.784Z,21.98
2018-08-09T23:38:56.884Z,21.96
2018-08-09T23:41:24.956Z,21.95
2018-08-09T23:43:53.032Z,21.94
2018-08-09T23:46:21.129Z,21.93
2018-08-09T23:48:49.224Z,21.91
2018-08-09T23:51:17.320Z,21.86
2018-08-09T23:53:45.415Z,21.83
2018-08-09T23:56:13.568Z,21.77
2018-08-09T23:58:41.648Z,21.77
